John_paul K — PBHY — position and weather

sailwx.info

Track history (hours):
 
Tides and Currents Weather Stations Pressure Air Temp Water Temp Dewpoint Dewpoint Depression Visibility Wind Speed Wind Dir Waves Ship Positions

John_paul K

Last reported at 2016-Sep-22 04:34 UTC. Time now 2016-Sep-24 22:39 UTC.
Position N 54°18' W 005°22'.

Length 90 m; draft 6.2 m.

Type: Cargo ship. MMSI: 245181000.

Date/timePositionNaut miles runAvg speedWind from/ knotsBaromVisibWave heightAir tempDewpointWater temp
2016-Sep-22 04:34N 54°18' W 005°22'9 8.6
2016-Sep-22 03:33N 54°26' W 005°21'3110.0
2016-Sep-22 00:31N 54°57' W 005°19'50 9.4
2016-Sep-21 19:10N 55°46' W 004°59'19 7.4
2016-Sep-21 16:33N 55°56' W 004°29'6 0.8
2016-Sep-21 09:32N 55°52' W 004°21'0 0.0
2016-Sep-21 08:32N 55°52' W 004°21'0 0.0
2016-Sep-21 05:32N 55°52' W 004°21'0 0.0
2016-Sep-21 03:32N 55°52' W 004°21'0 0.0
2016-Sep-21 02:32N 55°52' W 004°21'0 0.0
2016-Sep-20 17:32N 55°52' W 004°21'0 0.0
2016-Sep-20 14:31N 55°52' W 004°21'0 0.0
2016-Sep-20 13:31N 55°52' W 004°21'0 0.0
2016-Sep-20 10:31N 55°52' W 004°21'0 0.0
2016-Sep-20 08:31N 55°52' W 004°21'0 0.0
2016-Sep-20 07:31N 55°52' W 004°21'0 0.0
2016-Sep-20 06:31N 55°52' W 004°21'0 0.0
2016-Sep-20 02:31N 55°52' W 004°21'0 0.0
2016-Sep-19 23:31N 55°52' W 004°21'19 4.9
2016-Sep-19 19:33N 55°54' W 004°55'5210.4
2016-Sep-19 14:33N 55°03' W 005°15'1212.3
2016-Sep-19 13:33N 54°51' W 005°18'1110.6
2016-Sep-19 12:33N 54°40' W 005°19'10 9.6
2016-Sep-19 11:33N 54°31' W 005°20'19 9.7
2016-Sep-19 09:33N 54°11' W 005°22'23710.3
2016-Sep-18 10:33N 50°16' W 005°52'10 9.0
2016-Sep-18 09:26N 50°06' W 005°52'56 8.1
2016-Sep-18 02:33N 50°01' W 004°25'1311.7
2016-Sep-18 01:27N 50°03' W 004°05'1312.6
2016-Sep-18 00:23N 50°06' W 003°45'2211.9
2016-Sep-17 22:33N 50°10' W 003°12'10 9.7
2016-Sep-17 21:32N 50°12' W 002°56'10 8.2
2016-Sep-17 20:19N 50°14' W 002°41'10510.8
2016-Sep-17 10:33N 50°33' E 000°01'8 8.3
2016-Sep-17 09:33N 50°35' E 000°14'5310.4
2016-Sep-17 04:26N 51°03' E 001°25'34 8.8
2016-Sep-17 00:33N 51°28' E 002°02'169 9.9
2016-Sep-16 07:33N 53°34' E 005°07'39 9.8
2016-Sep-16 03:33N 53°46' E 006°09'1111.5
2016-Sep-16 02:34N 53°50' E 006°28'2412.0
2016-Sep-16 00:34N 53°55' E 007°07'2010.1
2016-Sep-15 22:33N 53°57' E 007°42'10 9.7
2016-Sep-15 21:33N 53°52' E 007°55'1110.8
2016-Sep-15 20:34N 53°46' E 008°11'2010.1
2016-Sep-15 18:33N 53°32' E 008°35'0 0.1
2016-Sep-15 12:31N 53°32' E 008°34'0 0.0
2016-Sep-15 11:28N 53°32' E 008°34'0 0.0
2016-Sep-15 04:31N 53°32' E 008°34'0 0.0
2016-Sep-15 03:31N 53°32' E 008°34'0 0.0
2016-Sep-15 01:31N 53°32' E 008°34'0 0.0
2016-Sep-14 22:31N 53°32' E 008°34'0 0.0
2016-Sep-14 21:34N 53°32' E 008°34'0 0.0
2016-Sep-14 17:33N 53°32' E 008°34'0 0.0
2016-Sep-14 16:33N 53°32' E 008°34'0 0.0
2016-Sep-14 13:33N 53°32' E 008°34'0 0.0
2016-Sep-14 12:30N 53°32' E 008°34'0 0.0
2016-Sep-14 10:30N 53°32' E 008°34'0 0.0
2016-Sep-14 09:33N 53°32' E 008°34'0 0.0
2016-Sep-14 08:33N 53°32' E 008°34'0 0.0
2016-Sep-14 07:33N 53°32' E 008°34'0 0.0
2016-Sep-14 06:33N 53°32' E 008°34'0 0.0
2016-Sep-14 03:33N 53°32' E 008°34'0 0.0
2016-Sep-13 22:33N 53°32' E 008°34'0 0.0
2016-Sep-13 20:33N 53°32' E 008°34'0 0.0
2016-Sep-13 18:33N 53°32' E 008°34'0 0.0
2016-Sep-13 17:33N 53°32' E 008°34'0 0.0
2016-Sep-13 16:33N 53°32' E 008°34'0 0.0
2016-Sep-13 11:32N 53°32' E 008°34'0 0.0
2016-Sep-13 09:32N 53°32' E 008°34'0 0.0
2016-Sep-13 07:33N 53°32' E 008°34'0 0.0
2016-Sep-13 06:32N 53°32' E 008°34'0 0.0
2016-Sep-13 04:32N 53°32' E 008°34'0 0.0
2016-Sep-13 02:32N 53°32' E 008°34'0 0.0
2016-Sep-12 23:32N 53°32' E 008°34'0 0.0
2016-Sep-12 21:32N 53°32' E 008°34'0 0.0
2016-Sep-12 19:32N 53°32' E 008°34'0 0.0
2016-Sep-12 17:29N 53°32' E 008°34'0 0.0
2016-Sep-12 14:32N 53°32' E 008°34'0 0.0
2016-Sep-12 13:32N 53°32' E 008°34'0 0.0
2016-Sep-12 12:32N 53°32' E 008°34'0 0.0
2016-Sep-12 11:32N 53°32' E 008°34'0 0.0
2016-Sep-12 10:32N 53°32' E 008°34'0 0.0
2016-Sep-12 07:31N 53°32' E 008°34'0 0.0
2016-Sep-12 06:31N 53°32' E 008°34'  
Track history (hours):
 
Tides and Currents Weather Stations Pressure Air Temp Water Temp Dewpoint Dewpoint Depression Visibility Wind Speed Wind Dir Waves Ship Positions

John_paul K

Last reported at 2016-Sep-22 04:34 UTC. Time now 2016-Sep-24 22:39 UTC.
Position N 54°18' W 005°22'.

Length 90 m; draft 6.2 m.

Type: Cargo ship. MMSI: 245181000.

Date/timePositionNaut miles runAvg speedWind from/ knotsBaromVisibWave heightAir tempDewpointWater temp
2016-Sep-22 04:34N 54°18' W 005°22'9 8.6
2016-Sep-22 03:33N 54°26' W 005°21'3110.0
2016-Sep-22 00:31N 54°57' W 005°19'50 9.4
2016-Sep-21 19:10N 55°46' W 004°59'19 7.4
2016-Sep-21 16:33N 55°56' W 004°29'6 0.8
2016-Sep-21 09:32N 55°52' W 004°21'0 0.0
2016-Sep-21 08:32N 55°52' W 004°21'0 0.0
2016-Sep-21 05:32N 55°52' W 004°21'0 0.0
2016-Sep-21 03:32N 55°52' W 004°21'0 0.0
2016-Sep-21 02:32N 55°52' W 004°21'0 0.0
2016-Sep-20 17:32N 55°52' W 004°21'0 0.0
2016-Sep-20 14:31N 55°52' W 004°21'0 0.0
2016-Sep-20 13:31N 55°52' W 004°21'0 0.0
2016-Sep-20 10:31N 55°52' W 004°21'0 0.0
2016-Sep-20 08:31N 55°52' W 004°21'0 0.0
2016-Sep-20 07:31N 55°52' W 004°21'0 0.0
2016-Sep-20 06:31N 55°52' W 004°21'0 0.0
2016-Sep-20 02:31N 55°52' W 004°21'0 0.0
2016-Sep-19 23:31N 55°52' W 004°21'19 4.9
2016-Sep-19 19:33N 55°54' W 004°55'5210.4
2016-Sep-19 14:33N 55°03' W 005°15'1212.3
2016-Sep-19 13:33N 54°51' W 005°18'1110.6
2016-Sep-19 12:33N 54°40' W 005°19'10 9.6
2016-Sep-19 11:33N 54°31' W 005°20'19 9.7
2016-Sep-19 09:33N 54°11' W 005°22'23710.3
2016-Sep-18 10:33N 50°16' W 005°52'10 9.0
2016-Sep-18 09:26N 50°06' W 005°52'56 8.1
2016-Sep-18 02:33N 50°01' W 004°25'1311.7
2016-Sep-18 01:27N 50°03' W 004°05'1312.6
2016-Sep-18 00:23N 50°06' W 003°45'2211.9
2016-Sep-17 22:33N 50°10' W 003°12'10 9.7
2016-Sep-17 21:32N 50°12' W 002°56'10 8.2
2016-Sep-17 20:19N 50°14' W 002°41'10510.8
2016-Sep-17 10:33N 50°33' E 000°01'8 8.3
2016-Sep-17 09:33N 50°35' E 000°14'5310.4
2016-Sep-17 04:26N 51°03' E 001°25'34 8.8
2016-Sep-17 00:33N 51°28' E 002°02'169 9.9
2016-Sep-16 07:33N 53°34' E 005°07'39 9.8
2016-Sep-16 03:33N 53°46' E 006°09'1111.5
2016-Sep-16 02:34N 53°50' E 006°28'2412.0
2016-Sep-16 00:34N 53°55' E 007°07'2010.1
2016-Sep-15 22:33N 53°57' E 007°42'10 9.7
2016-Sep-15 21:33N 53°52' E 007°55'1110.8
2016-Sep-15 20:34N 53°46' E 008°11'2010.1
2016-Sep-15 18:33N 53°32' E 008°35'0 0.1
2016-Sep-15 12:31N 53°32' E 008°34'0 0.0
2016-Sep-15 11:28N 53°32' E 008°34'0 0.0
2016-Sep-15 04:31N 53°32' E 008°34'0 0.0
2016-Sep-15 03:31N 53°32' E 008°34'0 0.0
2016-Sep-15 01:31N 53°32' E 008°34'0 0.0
2016-Sep-14 22:31N 53°32' E 008°34'0 0.0
2016-Sep-14 21:34N 53°32' E 008°34'0 0.0
2016-Sep-14 17:33N 53°32' E 008°34'0 0.0
2016-Sep-14 16:33N 53°32' E 008°34'0 0.0
2016-Sep-14 13:33N 53°32' E 008°34'0 0.0
2016-Sep-14 12:30N 53°32' E 008°34'0 0.0
2016-Sep-14 10:30N 53°32' E 008°34'0 0.0
2016-Sep-14 09:33N 53°32' E 008°34'0 0.0
2016-Sep-14 08:33N 53°32' E 008°34'0 0.0
2016-Sep-14 07:33N 53°32' E 008°34'0 0.0
2016-Sep-14 06:33N 53°32' E 008°34'0 0.0
2016-Sep-14 03:33N 53°32' E 008°34'0 0.0
2016-Sep-13 22:33N 53°32' E 008°34'0 0.0
2016-Sep-13 20:33N 53°32' E 008°34'0 0.0
2016-Sep-13 18:33N 53°32' E 008°34'0 0.0
2016-Sep-13 17:33N 53°32' E 008°34'0 0.0
2016-Sep-13 16:33N 53°32' E 008°34'0 0.0
2016-Sep-13 11:32N 53°32' E 008°34'0 0.0
2016-Sep-13 09:32N 53°32' E 008°34'0 0.0
2016-Sep-13 07:33N 53°32' E 008°34'0 0.0
2016-Sep-13 06:32N 53°32' E 008°34'0 0.0
2016-Sep-13 04:32N 53°32' E 008°34'0 0.0
2016-Sep-13 02:32N 53°32' E 008°34'0 0.0
2016-Sep-12 23:32N 53°32' E 008°34'0 0.0
2016-Sep-12 21:32N 53°32' E 008°34'0 0.0
2016-Sep-12 19:32N 53°32' E 008°34'0 0.0
2016-Sep-12 17:29N 53°32' E 008°34'0 0.0
2016-Sep-12 14:32N 53°32' E 008°34'0 0.0
2016-Sep-12 13:32N 53°32' E 008°34'0 0.0
2016-Sep-12 12:32N 53°32' E 008°34'0 0.0
2016-Sep-12 11:32N 53°32' E 008°34'0 0.0
2016-Sep-12 10:32N 53°32' E 008°34'0 0.0
2016-Sep-12 07:31N 53°32' E 008°34'0 0.0
2016-Sep-12 06:31N 53°32' E 008°34'  

Dump ship's entire track history